createdAt,value
2018-11-28T00:01:48.896Z,1.6
2018-11-28T00:07:16.637Z,1.6
2018-11-28T00:12:38.322Z,1.6
2018-11-28T00:18:05.806Z,1.6
2018-11-28T00:23:38.729Z,1.6
2018-11-28T00:29:00.907Z,1.5
2018-11-28T00:34:34.836Z,1.5
2018-11-28T00:39:57.550Z,1.4
2018-11-28T00:45:25.725Z,1.4
2018-11-28T00:50:57.984Z,1.3
2018-11-28T00:56:19.848Z,1.3
2018-11-28T01:01:47.306Z,1.3
2018-11-28T01:07:19.570Z,1.3
2018-11-28T01:12:47.459Z,1.2
2018-11-28T01:18:10.732Z,1.2
2018-11-28T01:23:43.396Z,1.1
2018-11-28T01:29:06.230Z,1
2018-11-28T01:34:35.221Z,0.9
2018-11-28T01:40:02.601Z,0.8
2018-11-28T01:45:30.420Z,0.7
2018-11-28T01:50:58.825Z,0.6
2018-11-28T01:56:26.990Z,0.6
2018-11-28T02:01:54.406Z,0.5
2018-11-28T02:07:27.026Z,0.5
2018-11-28T02:12:50.197Z,0.4
2018-11-28T02:18:22.819Z,0.4
2018-11-28T02:23:44.335Z,0.3
2018-11-28T02:29:16.746Z,0.3
2018-11-28T02:34:39.573Z,0.3
2018-11-28T02:40:08.003Z,0.3
2018-11-28T02:45:41.422Z,0.3
2018-11-28T02:51:03.266Z,0.4
2018-11-28T02:56:31.094Z,0.4
2018-11-28T03:01:59.531Z,0.5
2018-11-28T03:07:26.706Z,0.6
2018-11-28T03:12:53.883Z,0.6
2018-11-28T03:18:20.787Z,0.6
2018-11-28T03:23:48.177Z,0.6
2018-11-28T03:29:16.031Z,0.5
2018-11-28T03:34:48.548Z,0.4
2018-11-28T03:40:10.335Z,0.4
2018-11-28T03:45:37.679Z,0.3
2018-11-28T03:51:04.517Z,0.3
2018-11-28T03:56:31.915Z,0.2
2018-11-28T04:01:59.003Z,0.2
2018-11-28T04:07:25.875Z,0.1
2018-11-28T04:12:53.043Z,0.1
2018-11-28T04:18:20.630Z,0
2018-11-28T04:23:53.814Z,0
2018-11-28T04:29:16.353Z,0
2018-11-28T04:34:49.475Z,-0.1
2018-11-28T04:40:11.554Z,-0.1
2018-11-28T04:45:44.645Z,-0.1
2018-11-28T04:51:07.016Z,-0.1
2018-11-28T04:56:33.836Z,-0.1
2018-11-28T05:02:06.509Z,-0.2
2018-11-28T05:07:28.139Z,-0.2
2018-11-28T05:12:56.211Z,-0.2
2018-11-28T05:18:24.315Z,-0.3
2018-11-28T05:23:52.331Z,-0.3
2018-11-28T05:29:20.473Z,-0.3
2018-11-28T05:34:47.629Z,-0.3
2018-11-28T05:40:19.576Z,-0.4
2018-11-28T05:45:41.540Z,-0.4
2018-11-28T05:51:08.584Z,-0.4
2018-11-28T05:56:35.629Z,-0.4
2018-11-28T06:02:03.945Z,-0.5
2018-11-28T06:07:30.750Z,-0.5
2018-11-28T06:12:58.065Z,-0.5
2018-11-28T06:18:24.865Z,-0.6
2018-11-28T06:23:52.170Z,-0.6
2018-11-28T06:29:19.235Z,-0.6
2018-11-28T06:34:47.284Z,-0.6
2018-11-28T06:40:15.103Z,-0.6
2018-11-28T06:45:48.412Z,-0.7
2018-11-28T06:51:16.472Z,-0.7
2018-11-28T06:56:39.475Z,-0.7
2018-11-28T07:02:07.268Z,-0.7
2018-11-28T07:07:34.355Z,-0.7
2018-11-28T07:13:01.633Z,-0.7
2018-11-28T07:18:34.580Z,-0.7
2018-11-28T07:23:57.717Z,-0.8
2018-11-28T07:29:24.808Z,-0.8
2018-11-28T07:34:57.116Z,-0.8
2018-11-28T07:40:24.595Z,-0.8
2018-11-28T07:45:47.143Z,-0.8
2018-11-28T07:51:14.951Z,-0.7
2018-11-28T07:56:42.981Z,-0.7
2018-11-28T08:02:15.342Z,-0.7
2018-11-28T08:07:37.122Z,-0.7
2018-11-28T08:13:04.137Z,-0.6
2018-11-28T08:18:32.202Z,-0.6
2018-11-28T08:23:59.021Z,-0.6
2018-11-28T08:29:27.095Z,-0.5
2018-11-28T08:34:54.398Z,-0.5
2018-11-28T08:40:21.161Z,-0.5
2018-11-28T08:45:53.241Z,-0.5
2018-11-28T08:51:15.336Z,-0.4
2018-11-28T08:56:42.382Z,-0.4
2018-11-28T09:02:15.990Z,-0.3
2018-11-28T09:07:42.909Z,-0.3
2018-11-28T09:13:10.615Z,-0.2
2018-11-28T09:18:33.954Z,-0.2
2018-11-28T09:24:02.054Z,-0.1
2018-11-28T09:29:29.905Z,-0.1
2018-11-28T09:34:56.987Z,0
2018-11-28T09:40:24.051Z,0
2018-11-28T09:45:57.943Z,0.1
2018-11-28T09:51:21.088Z,0.2
2018-11-28T09:56:48.728Z,0.2
2018-11-28T10:02:16.554Z,0.3
2018-11-28T10:07:48.977Z,0.4
2018-11-28T10:13:15.894Z,0.4
2018-11-28T10:18:38.217Z,0.5
2018-11-28T10:24:06.205Z,0.5
2018-11-28T10:29:33.200Z,0.5
2018-11-28T10:35:06.394Z,0.6
2018-11-28T10:40:34.524Z,0.7
2018-11-28T10:45:57.982Z,0.8
2018-11-28T10:51:25.204Z,0.8
2018-11-28T10:56:57.065Z,0.9
2018-11-28T11:07:52.668Z,0.8
2018-11-28T11:13:20.563Z,0.8
2018-11-28T11:18:42.658Z,0.7
2018-11-28T11:24:15.846Z,0.7
2018-11-28T11:29:37.966Z,0.8
2018-11-28T11:35:05.131Z,0.8
2018-11-28T11:40:32.447Z,0.9
2018-11-28T11:46:00.437Z,1
2018-11-28T11:51:28.651Z,0.9
2018-11-28T11:57:00.907Z,0.9
2018-11-28T12:02:23.944Z,1
2018-11-28T12:07:51.129Z,1.1
2018-11-28T12:13:23.621Z,1.1
2018-11-28T12:18:45.488Z,1.1
2018-11-28T12:24:13.689Z,1.1
2018-11-28T12:29:43.375Z,1
2018-11-28T12:35:10.050Z,1
2018-11-28T12:40:37.192Z,1
2018-11-28T12:46:10.402Z,1
2018-11-28T12:51:32.558Z,1
2018-11-28T12:57:00.746Z,0.9
2018-11-28T13:02:33.190Z,0.9
2018-11-28T13:07:56.049Z,0.9
2018-11-28T13:13:24.233Z,0.9
2018-11-28T13:18:57.715Z,0.9
2018-11-28T13:24:20.574Z,0.9
2018-11-28T13:29:47.794Z,0.9
2018-11-28T13:35:15.259Z,0.9
2018-11-28T13:40:42.271Z,0.8
2018-11-28T13:46:10.700Z,0.8
2018-11-28T13:51:42.421Z,0.8
2018-11-28T13:57:10.888Z,0.7
2018-11-28T14:02:34.010Z,0.7
2018-11-28T14:08:00.909Z,0.6
2018-11-28T14:13:28.354Z,0.6
2018-11-28T14:18:55.182Z,0.6
2018-11-28T14:24:22.321Z,0.6
2018-11-28T14:29:54.634Z,0.5
2018-11-28T14:35:16.566Z,0.5
2018-11-28T14:40:43.743Z,0.5
2018-11-28T14:46:10.874Z,0.4
2018-11-28T14:51:38.986Z,0.4
2018-11-28T14:57:06.143Z,0.4
2018-11-28T15:02:34.250Z,0.4
2018-11-28T15:08:01.376Z,0.3
2018-11-28T15:13:34.519Z,0.3
2018-11-28T15:18:57.628Z,0.3
2018-11-28T15:24:24.804Z,0.2
2018-11-28T15:29:51.919Z,0.2
2018-11-28T15:35:19.286Z,0.2
2018-11-28T15:40:46.143Z,0.2
2018-11-28T15:46:19.297Z,0.2
2018-11-28T15:51:41.659Z,0.2
2018-11-28T15:57:14.547Z,0.2
2018-11-28T16:02:42.937Z,0.3
2018-11-28T16:08:09.788Z,0.3
2018-11-28T16:13:32.882Z,0.3
2018-11-28T16:19:01.310Z,0.3
2018-11-28T16:24:28.229Z,0.3
2018-11-28T16:29:56.301Z,0.3
2018-11-28T16:35:24.077Z,0.3
2018-11-28T16:40:51.602Z,0.3
2018-11-28T16:46:18.748Z,0.3
2018-11-28T16:51:51.886Z,0.4
2018-11-28T16:57:15.042Z,0.4
2018-11-28T17:02:43.550Z,0.4
2018-11-28T17:08:11.629Z,0.4
2018-11-28T17:13:39.502Z,0.4
2018-11-28T17:19:12.693Z,0.4
2018-11-28T17:24:36.185Z,0.4
2018-11-28T17:30:03.908Z,0.4
2018-11-28T17:35:36.385Z,0.4
2018-11-28T17:41:04.218Z,0.4
2018-11-28T17:46:26.344Z,0.4
2018-11-28T17:51:54.481Z,0.4
2018-11-28T17:57:22.658Z,0.4
2018-11-28T18:02:50.762Z,0.4
2018-11-28T18:08:18.947Z,0.4
2018-11-28T18:13:51.365Z,0.5
2018-11-28T18:19:14.230Z,0.5
2018-11-28T18:24:42.370Z,0.5
2018-11-28T18:30:10.797Z,0.5
2018-11-28T18:35:38.735Z,0.5
2018-11-28T18:41:05.972Z,0.6
2018-11-28T18:46:33.971Z,0.6
2018-11-28T18:52:02.420Z,0.6
2018-11-28T18:57:35.393Z,0.6
2018-11-28T19:02:57.423Z,0.6
2018-11-28T19:08:29.890Z,0.6
2018-11-28T19:13:56.787Z,0.7
2018-11-28T19:19:19.145Z,0.7
2018-11-28T19:24:51.343Z,0.7
2018-11-28T19:30:13.223Z,0.7
2018-11-28T19:35:41.627Z,0.7
2018-11-28T19:41:09.754Z,0.7
2018-11-28T19:46:36.650Z,0.8
2018-11-28T19:52:04.071Z,0.8
2018-11-28T19:57:32.037Z,0.8
2018-11-28T20:03:00.280Z,0.8
2018-11-28T20:08:28.278Z,0.9
2018-11-28T20:13:55.727Z,0.9
2018-11-28T20:19:22.643Z,0.9
2018-11-28T20:24:50.369Z,0.9
2018-11-28T20:30:22.994Z,0.9
2018-11-28T20:35:46.154Z,1
2018-11-28T20:41:19.325Z,1
2018-11-28T20:46:41.827Z,1
2018-11-28T20:52:14.956Z,1
2018-11-28T20:57:37.850Z,1
2018-11-28T21:03:05.146Z,1
2018-11-28T21:08:33.458Z,1.1
2018-11-28T21:14:00.420Z,1.1
2018-11-28T21:19:28.833Z,1.1
2018-11-28T21:24:55.806Z,1.1
2018-11-28T21:30:27.996Z,1.2
2018-11-28T21:35:50.210Z,1.2
2018-11-28T21:41:22.386Z,1.2
2018-11-28T21:46:44.824Z,1.3
2018-11-28T21:52:12.764Z,1.3
2018-11-28T21:57:40.258Z,1.3
2018-11-28T22:03:08.183Z,1.3
2018-11-28T22:08:35.347Z,1.3
2018-11-28T22:14:02.633Z,1.3
2018-11-28T22:19:30.809Z,1.2
2018-11-28T22:24:57.974Z,1.2
2018-11-28T22:30:25.481Z,1.2
2018-11-28T22:35:58.915Z,1.2
2018-11-28T22:41:21.534Z,1.1
2018-11-28T22:46:49.028Z,1.1
2018-11-28T22:52:16.234Z,1.1
2018-11-28T22:57:44.495Z,1.1
2018-11-28T23:03:11.604Z,1.2
2018-11-28T23:08:43.805Z,1.2
2018-11-28T23:14:12.062Z,1.2
2018-11-28T23:19:39.914Z,1.2
2018-11-28T23:25:07.192Z,1.2
2018-11-28T23:30:29.266Z,1.2
2018-11-28T23:35:56.720Z,1.2
2018-11-28T23:41:24.660Z,1.2
2018-11-28T23:46:51.835Z,1.2
2018-11-28T23:52:20.012Z,1.2
2018-11-28T23:57:48.227Z,1.2
